Time;durP1;ratioP1;P1;durP2;ratioP2;P2;SDS_P1;SDS_P2;PMS_P1;PMS_P2;Temp;Humidity;BMP_temperature;BMP_pressure;BME280_temperature;BME280_humidity;BME280_pressure;Samples;Min_cycle;Max_cycle;Signal;HPM_P1;HPM_P2
2022/02/19 00:00:26;;;;;;;17.58;16.33;;;;;;;12.07;78.64;97310.19;2075004;28;20188;-72
2022/02/19 00:01:31;;;;;;;17.35;16.02;;;;;;;12.07;78.64;97307.50;2082702;28;20203;-72
2022/02/19 00:02:32;;;;;;;17.45;16.05;;;;;;;12.18;77.59;97310.44;2090221;28;20214;-73
2022/02/19 00:03:37;;;;;;;17.33;16.08;;;;;;;12.24;77.48;97305.59;2082792;28;20184;-73
2022/02/19 00:04:42;;;;;;;17.75;16.42;;;;;;;12.26;77.28;97304.13;2082700;28;20196;-73
2022/02/19 00:05:49;;;;;;;18.33;16.38;;;;;;;12.21;77.63;97307.06;2082867;28;20202;-72
2022/02/19 00:06:53;;;;;;;17.20;15.98;;;;;;;12.23;77.67;97304.81;2081650;28;20226;-73
2022/02/19 00:07:56;;;;;;;18.00;16.25;;;;;;;12.22;77.36;97297.13;2074275;28;20590;-72
2022/02/19 00:08:58;;;;;;;17.73;16.42;;;;;;;12.27;77.08;97308.34;2082012;28;20674;-73
2022/02/19 00:10:00;;;;;;;18.55;16.75;;;;;;;12.30;76.37;97322.91;2082149;28;20195;-73
2022/02/19 00:11:05;;;;;;;18.48;16.42;;;;;;;12.23;76.64;97320.84;2082877;28;20203;-73
2022/02/19 00:12:12;;;;;;;17.48;16.05;;;;;;;12.22;76.14;97327.31;2082890;28;20218;-73
2022/02/19 00:13:15;;;;;;;17.30;15.80;;;;;;;12.36;75.53;97321.53;2082509;28;20212;-72
2022/02/19 00:14:17;;;;;;;17.23;15.80;;;;;;;12.38;75.41;97330.75;2082121;28;20191;-73
2022/02/19 00:15:19;;;;;;;17.90;16.15;;;;;;;12.39;74.93;97342.97;2082748;28;20216;-73
2022/02/19 00:16:20;;;;;;;17.92;16.30;;;;;;;12.34;75.49;97329.13;2082721;28;20222;-72
2022/02/19 00:17:27;;;;;;;17.70;16.38;;;;;;;12.37;74.83;97352.50;2082819;28;20725;-73
2022/02/19 00:18:30;;;;;;;17.27;15.98;;;;;;;12.45;74.81;97344.25;2082395;28;20226;-72
2022/02/19 00:19:39;;;;;;;17.70;16.20;;;;;;;12.47;74.37;97361.88;2074473;28;20196;-73
2022/02/19 00:20:42;;;;;;;17.90;16.33;;;;;;;12.56;74.35;97371.25;2075321;28;20200;-72
2022/02/19 00:21:45;;;;;;;17.38;15.65;;;;;;;12.67;73.85;97368.78;2081707;28;20227;-72
2022/02/19 00:22:49;;;;;;;17.98;16.27;;;;;;;12.62;73.83;97361.81;2082751;28;20206;-73
2022/02/19 00:23:51;;;;;;;17.98;16.52;;;;;;;12.56;73.93;97367.78;2082101;28;20235;-72
2022/02/19 00:24:58;;;;;;;17.85;16.27;;;;;;;12.59;73.98;97372.44;2082119;28;20721;-73
2022/02/19 00:26:01;;;;;;;17.88;16.48;;;;;;;12.58;73.99;97371.66;2081876;28;20210;-73
2022/02/19 00:27:05;;;;;;;17.27;15.85;;;;;;;12.56;74.01;97394.53;2082080;28;20230;-72
2022/02/19 00:28:08;;;;;;;16.65;15.55;;;;;;;12.54;73.93;97376.16;2082583;28;20200;-73
2022/02/19 00:29:10;;;;;;;17.65;15.95;;;;;;;12.59;73.63;97373.19;2082825;28;20274;-72
2022/02/19 00:30:13;;;;;;;18.02;16.55;;;;;;;12.63;73.69;97378.66;2081871;28;20234;-73
2022/02/19 00:31:15;;;;;;;17.67;16.20;;;;;;;12.70;73.67;97378.81;2073835;28;20242;-73
2022/02/19 00:32:23;;;;;;;17.58;16.13;;;;;;;12.72;74.38;97411.34;2081970;28;20635;-72
2022/02/19 00:33:27;;;;;;;17.60;16.30;;;;;;;12.84;74.71;97463.94;2082748;28;20176;-73
2022/02/19 00:34:38;;;;;;;17.65;16.10;;;;;;;12.97;74.60;97419.88;2082539;28;20557;-72
2022/02/19 00:35:40;;;;;;;17.38;15.90;;;;;;;12.98;75.06;97454.34;2082213;28;20204;-73
2022/02/19 00:36:46;;;;;;;16.80;15.60;;;;;;;13.04;75.46;97537.84;2081970;28;20223;-72
2022/02/19 00:37:49;;;;;;;17.20;16.00;;;;;;;13.17;75.33;97460.81;2089602;28;20194;-72
2022/02/19 00:38:57;;;;;;;17.60;16.30;;;;;;;13.15;75.69;97466.53;2082443;28;20263;-72
2022/02/19 00:40:05;;;;;;;17.38;15.98;;;;;;;13.13;76.17;97444.69;2082415;28;20207;-72
2022/02/19 00:41:14;;;;;;;17.45;16.08;;;;;;;13.12;76.42;97458.41;2081315;28;20195;-72
2022/02/19 00:42:20;;;;;;;17.15;15.85;;;;;;;13.06;77.07;97642.69;2082084;28;20227;-72
2022/02/19 00:43:21;;;;;;;17.25;15.70;;;;;;;13.05;77.77;97474.34;2081923;28;20191;-72
2022/02/19 00:44:24;;;;;;;16.67;15.47;;;;;;;13.01;78.14;97475.03;2082584;28;20187;-72
2022/02/19 00:45:27;;;;;;;17.30;16.00;;;;;;;13.01;78.46;97480.38;2081761;28;20874;-72
2022/02/19 00:46:34;;;;;;;16.83;15.57;;;;;;;12.93;79.93;97493.97;2081918;28;20199;-72
2022/02/19 00:47:39;;;;;;;17.50;16.00;;;;;;;12.84;80.75;97470.06;2082178;28;20291;-72
2022/02/19 00:48:48;;;;;;;17.67;16.05;;;;;;;12.88;80.69;97478.19;2082072;28;20164;-72
2022/02/19 00:49:51;;;;;;;17.10;15.82;;;;;;;12.79;81.07;97486.41;2082386;28;20230;-72
2022/02/19 00:50:56;;;;;;;16.95;15.48;;;;;;;12.76;81.95;97500.47;2081594;28;20199;-73
2022/02/19 00:52:00;;;;;;;16.95;15.35;;;;;;;12.69;81.95;97503.03;2082143;28;20203;-72
2022/02/19 00:53:06;;;;;;;17.13;15.93;;;;;;;12.66;82.04;97495.66;2081954;28;20298;-72
2022/02/19 00:54:12;;;;;;;17.40;16.00;;;;;;;12.56;82.94;97517.59;2074088;28;20596;-72
2022/02/19 00:55:24;;;;;;;17.48;16.17;;;;;;;12.52;85.89;97509.50;2082422;28;20757;-72
2022/02/19 00:56:28;;;;;;;17.17;15.77;;;;;;;12.49;87.68;97499.47;2088851;28;20265;-73
2022/02/19 00:57:30;;;;;;;17.30;15.80;;;;;;;12.40;92.35;97530.97;2081944;28;20208;-73
2022/02/19 00:58:33;;;;;;;17.23;15.90;;;;;;;12.22;96.25;97514.50;2073599;28;20203;-72
2022/02/19 00:59:37;;;;;;;16.90;15.60;;;;;;;12.12;98.84;97513.13;2081661;28;20226;-72
2022/02/19 01:00:41;;;;;;;16.35;15.15;;;;;;;11.90;99.27;97519.00;2073765;28;20204;-72
2022/02/19 01:02:05;;;;;;;16.50;15.30;;;;;;;11.80;100.00;97530.19;2076675;28;20211;-72
2022/02/19 01:03:39;;;;;;;16.70;15.30;;;;;;;11.69;97.52;97551.25;2080779;28;20544;-72
2022/02/19 01:04:41;;;;;;;16.92;15.45;;;;;;;11.58;98.27;97550.97;2082243;28;20192;-72
2022/02/19 01:05:43;;;;;;;16.70;15.40;;;;;;;11.52;93.60;97579.03;2081654;28;20195;-72
2022/02/19 01:06:45;;;;;;;16.73;15.57;;;;;;;11.48;92.01;97529.31;2081636;28;20677;-72
2022/02/19 01:07:50;;;;;;;16.02;14.90;;;;;;;11.48;90.14;97521.31;2073562;28;20200;-72
2022/02/19 01:08:57;;;;;;;16.27;15.10;;;;;;;11.43;88.04;97540.22;2081583;28;20782;-72
2022/02/19 01:10:02;;;;;;;16.55;15.40;;;;;;;11.37;87.47;97499.63;2074756;28;20208;-72
2022/02/19 01:11:10;;;;;;;16.17;14.88;;;;;;;11.37;85.81;97498.84;2081541;28;20709;-72
2022/02/19 01:12:14;;;;;;;15.60;14.60;;;;;;;11.33;84.97;97520.88;2081917;28;20684;-72
2022/02/19 01:13:17;;;;;;;16.10;14.80;;;;;;;11.32;85.37;97604.00;2082270;28;20187;-72
2022/02/19 01:14:23;;;;;;;15.57;14.52;;;;;;;11.26;84.80;97526.03;2089790;28;20191;-72
2022/02/19 01:15:28;;;;;;;15.98;14.88;;;;;;;11.21;84.81;97510.25;2081392;28;20690;-72
2022/02/19 01:16:39;;;;;;;15.27;14.32;;;;;;;11.16;85.54;97531.84;2074153;28;20264;-72
2022/02/19 01:17:44;;;;;;;15.70;14.60;;;;;;;11.11;86.89;97598.00;2074875;28;20228;-72
2022/02/19 01:18:46;;;;;;;16.40;15.05;;;;;;;11.12;88.51;97535.50;2081546;28;20191;-72
2022/02/19 01:19:48;;;;;;;16.73;15.18;;;;;;;11.12;89.59;97560.31;2081550;28;20207;-72
2022/02/19 01:20:50;;;;;;;17.23;15.83;;;;;;;11.08;91.29;97540.75;2081509;28;20291;-72
2022/02/19 01:21:56;;;;;;;16.55;15.38;;;;;;;11.04;95.99;97539.88;2081326;28;20215;-71
2022/02/19 01:22:58;;;;;;;16.52;15.38;;;;;;;10.90;100.00;97552.78;2081941;28;20683;-71
2022/02/19 01:24:03;;;;;;;17.75;16.52;;;;;;;10.72;100.00;97531.66;2073608;28;20250;-72
2022/02/19 01:25:08;;;;;;;20.00;18.50;;;;;;;10.49;100.00;97565.19;2074171;28;20258;-72
2022/02/19 01:26:18;;;;;;;21.40;19.70;;;;;;;10.30;100.00;97557.72;2082841;28;20196;-71
2022/02/19 01:27:26;;;;;;;21.08;19.30;;;;;;;10.16;100.00;97576.69;2081795;28;20523;-72
2022/02/19 01:28:34;;;;;;;20.60;19.10;;;;;;;10.06;100.00;97584.28;2073633;28;20266;-71
2022/02/19 01:29:41;;;;;;;21.13;19.50;;;;;;;9.93;100.00;97554.16;2074852;28;20295;-72
2022/02/19 01:30:46;;;;;;;22.90;21.00;;;;;;;9.83;100.00;97560.69;2081615;28;20188;-72
2022/02/19 01:31:55;;;;;;;21.30;19.60;;;;;;;9.78;100.00;97586.75;2082169;28;20607;-72
2022/02/19 01:32:57;;;;;;;21.17;19.35;;;;;;;9.74;100.00;97583.19;2081308;28;20219;-72
2022/02/19 01:34:01;;;;;;;21.95;19.95;;;;;;;9.72;100.00;97575.50;2073431;28;20216;-72
2022/02/19 01:35:04;;;;;;;22.75;20.75;;;;;;;9.63;100.00;97550.81;2081473;28;20196;-72
2022/02/19 01:36:09;;;;;;;21.90;20.05;;;;;;;9.57;100.00;97554.81;2081227;28;20732;-71
2022/02/19 01:37:17;;;;;;;23.05;21.02;;;;;;;9.55;100.00;97571.09;2081486;28;20209;-72
2022/02/19 01:38:24;;;;;;;22.90;20.90;;;;;;;9.50;100.00;97563.31;2081963;28;20199;-72
2022/02/19 01:39:30;;;;;;;23.10;21.30;;;;;;;9.45;100.00;97555.50;2081538;28;20238;-72
2022/02/19 01:40:36;;;;;;;24.10;21.90;;;;;;;9.41;100.00;97593.75;2081329;28;20294;-72
2022/02/19 01:41:41;;;;;;;22.77;20.90;;;;;;;9.29;100.00;97571.28;2081427;28;20230;-72
2022/02/19 01:42:46;;;;;;;23.08;21.38;;;;;;;9.21;100.00;97590.78;2081410;28;20214;-72
2022/02/19 01:43:50;;;;;;;22.77;20.88;;;;;;;9.10;100.00;97594.09;2081539;28;20756;-72
2022/02/19 01:44:56;;;;;;;21.20;19.48;;;;;;;8.98;100.00;97595.59;2081940;28;20219;-73
2022/02/19 01:46:02;;;;;;;19.92;18.42;;;;;;;8.99;100.00;97618.41;2074201;28;20216;-72
2022/02/19 01:47:05;;;;;;;18.65;17.35;;;;;;;8.99;100.00;97599.78;2081309;28;20200;-72
2022/02/19 01:48:10;;;;;;;18.40;16.90;;;;;;;9.01;100.00;97578.97;2073308;28;20200;-72
2022/02/19 01:49:12;;;;;;;18.70;17.25;;;;;;;8.96;100.00;97573.84;2074172;28;20212;-72
2022/02/19 01:50:18;;;;;;;19.67;18.00;;;;;;;8.96;100.00;97591.69;2081621;28;20191;-72
2022/02/19 01:51:23;;;;;;;17.95;16.70;;;;;;;8.98;100.00;97562.88;2081340;28;20219;-72
2022/02/19 01:52:28;;;;;;;18.98;17.58;;;;;;;8.91;100.00;97557.28;2073741;28;20295;-71
2022/02/19 01:53:37;;;;;;;17.88;16.40;;;;;;;8.86;100.00;97560.91;2074367;28;20200;-72
2022/02/19 01:54:48;;;;;;;18.02;16.55;;;;;;;8.99;100.00;97554.56;2081441;28;20198;-72
2022/02/19 01:56:13;;;;;;;17.05;15.63;;;;;;;8.95;100.00;97527.06;2081376;28;20677;-72
2022/02/19 01:57:28;;;;;;;17.00;15.80;;;;;;;8.96;100.00;97544.59;2074557;28;20251;-72
2022/02/19 01:59:04;;;;;;;17.17;16.00;;;;;;;8.99;100.00;97532.53;2077234;28;20283;-72
2022/02/19 02:00:26;;;;;;;16.50;15.30;;;;;;;9.07;100.00;97542.31;2076585;28;20195;-71
2022/02/19 02:01:47;;;;;;;17.25;16.02;;;;;;;9.08;100.00;97557.19;2076479;28;20192;-73
2022/02/19 02:03:12;;;;;;;17.00;15.70;;;;;;;9.16;100.00;97559.00;2081243;28;20227;-73
2022/02/19 02:04:24;;;;;;;16.30;15.23;;;;;;;9.15;100.00;97554.78;2081441;28;20191;-73
2022/02/19 02:05:32;;;;;;;16.98;15.77;;;;;;;9.16;100.00;97558.22;2074405;28;20200;-73
2022/02/19 02:06:46;;;;;;;17.10;15.80;;;;;;;9.22;100.00;97557.72;2073870;28;20230;-73
2022/02/19 02:07:52;;;;;;;16.70;15.60;;;;;;;9.25;100.00;97565.06;2075140;28;20205;-73
2022/02/19 02:08:57;;;;;;;17.35;15.80;;;;;;;9.30;100.00;97578.19;2073967;28;20651;-73
2022/02/19 02:10:02;;;;;;;16.48;15.27;;;;;;;9.27;100.00;97559.41;2074005;28;20200;-73
2022/02/19 02:11:07;;;;;;;16.15;14.90;;;;;;;9.25;100.00;97567.72;2081281;28;20241;-73
2022/02/19 02:12:28;;;;;;;15.95;14.85;;;;;;;9.29;100.00;97562.50;2075426;28;20549;-73
2022/02/19 02:13:38;;;;;;;16.50;15.20;;;;;;;9.29;100.00;97581.91;2075271;28;20200;-73
2022/02/19 02:14:46;;;;;;;16.42;15.32;;;;;;;9.32;97.75;97564.53;2072859;28;20629;-73
2022/02/19 02:15:52;;;;;;;15.90;14.80;;;;;;;9.35;95.87;97575.31;2081519;28;20204;-73
2022/02/19 02:17:12;;;;;;;16.00;15.00;;;;;;;9.41;92.50;97562.59;2081386;28;20200;-73
2022/02/19 02:18:19;;;;;;;16.48;15.07;;;;;;;9.44;89.94;97583.25;2073593;28;20235;-73
2022/02/19 02:19:27;;;;;;;15.55;14.55;;;;;;;9.49;84.28;97593.69;2074369;28;20200;-73
2022/02/19 02:20:39;;;;;;;15.73;14.70;;;;;;;9.56;83.27;97593.97;2075240;28;20614;-73
2022/02/19 02:21:48;;;;;;;15.70;14.70;;;;;;;9.59;81.14;97590.66;2073466;28;20227;-73
2022/02/19 02:22:50;;;;;;;15.52;14.43;;;;;;;9.56;78.93;97562.03;2073799;28;20196;-73
2022/02/19 02:23:52;;;;;;;15.23;14.23;;;;;;;9.56;80.02;97571.91;2081192;28;20236;-73
2022/02/19 02:25:00;;;;;;;15.98;14.88;;;;;;;9.52;78.38;97587.72;2081275;28;20207;-73
2022/02/19 02:26:18;;;;;;;15.73;14.60;;;;;;;9.59;74.73;97588.00;2081301;28;20206;-72
2022/02/19 02:27:23;;;;;;;15.80;14.80;;;;;;;9.63;72.29;97590.75;2081753;28;20208;-72
2022/02/19 02:28:28;;;;;;;16.58;15.27;;;;;;;9.70;69.87;97595.56;2073888;28;20291;-72
2022/02/19 02:29:29;;;;;;;15.60;14.60;;;;;;;9.72;68.99;97586.16;2073990;28;20283;-73
2022/02/19 02:30:33;;;;;;;16.08;14.88;;;;;;;9.73;66.37;97611.69;2073422;28;20690;-72
2022/02/19 02:31:44;;;;;;;16.02;14.93;;;;;;;9.74;67.62;97594.63;2074933;28;20265;-73
2022/02/19 02:32:59;;;;;;;15.70;14.70;;;;;;;9.78;65.22;97594.72;2081278;28;20219;-73
2022/02/19 02:34:01;;;;;;;16.30;15.10;;;;;;;9.77;65.04;97593.16;2074483;28;20261;-72
2022/02/19 02:35:08;;;;;;;15.68;14.70;;;;;;;9.72;65.32;97596.03;2073334;28;20698;-73
2022/02/19 02:36:17;;;;;;;15.50;14.50;;;;;;;9.71;66.07;97597.91;2073897;28;20315;-73
2022/02/19 02:37:26;;;;;;;15.60;14.60;;;;;;;9.70;64.57;97583.03;2074226;28;20224;-73
2022/02/19 02:38:28;;;;;;;15.90;14.60;;;;;;;9.76;63.80;97599.59;2073212;28;20185;-73
2022/02/19 02:39:37;;;;;;;15.75;14.60;;;;;;;9.77;64.37;97590.50;2073350;28;20208;-73
2022/02/19 02:40:41;;;;;;;15.77;14.77;;;;;;;9.74;64.57;97593.84;2081199;28;20238;-72
2022/02/19 02:41:46;;;;;;;15.75;14.70;;;;;;;9.73;64.17;97605.56;2073464;28;20204;-72
2022/02/19 02:42:48;;;;;;;15.25;14.35;;;;;;;9.73;64.73;97619.69;2073703;28;20247;-72
2022/02/19 02:43:53;;;;;;;15.98;14.82;;;;;;;9.77;64.83;97603.81;2073843;28;20254;-73
2022/02/19 02:44:58;;;;;;;15.40;14.30;;;;;;;9.77;65.42;97601.16;2074321;28;20200;-73
2022/02/19 02:45:59;;;;;;;15.32;14.20;;;;;;;9.76;66.36;97612.94;2082968;28;20203;-73
2022/02/19 02:47:02;;;;;;;15.88;14.82;;;;;;;9.80;66.34;97601.28;2074548;28;20255;-73
2022/02/19 02:48:06;;;;;;;15.90;14.80;;;;;;;9.84;66.78;97625.41;2082697;28;20740;-72
2022/02/19 02:49:15;;;;;;;15.27;14.27;;;;;;;9.82;67.18;97639.03;2075122;28;20295;-71
2022/02/19 02:50:18;;;;;;;15.93;14.82;;;;;;;9.80;68.17;97597.84;2075388;28;20203;-73
2022/02/19 02:51:21;;;;;;;15.38;14.38;;;;;;;9.80;67.90;97619.94;2082220;28;20548;-71
2022/02/19 02:52:23;;;;;;;15.95;14.85;;;;;;;9.78;69.00;97605.38;2082685;28;20211;-74
2022/02/19 02:53:32;;;;;;;15.67;14.57;;;;;;;9.78;69.41;97632.00;2082875;28;20208;-71
2022/02/19 02:54:38;;;;;;;15.75;14.75;;;;;;;9.82;70.54;97608.97;2082985;28;20196;-71
2022/02/19 02:55:42;;;;;;;15.85;14.63;;;;;;;9.80;71.25;97635.91;2075106;28;20196;-71
2022/02/19 02:56:47;;;;;;;15.10;14.10;;;;;;;9.85;71.53;97610.97;2075349;28;20295;-71
2022/02/19 02:57:50;;;;;;;15.35;14.35;;;;;;;9.85;72.15;97635.72;2074542;28;20223;-71
2022/02/19 02:58:52;;;;;;;15.18;14.27;;;;;;;9.86;72.46;97612.53;2074757;28;20204;-71
2022/02/19 02:59:59;;;;;;;15.30;14.30;;;;;;;9.85;73.36;97674.91;2074516;28;20216;-71
2022/02/19 03:01:01;;;;;;;15.75;14.75;;;;;;;9.87;73.79;97614.06;2082637;28;20253;-72
2022/02/19 03:02:09;;;;;;;15.55;14.55;;;;;;;9.84;73.42;97626.19;2074898;28;20663;-71
2022/02/19 03:03:17;;;;;;;16.00;14.90;;;;;;;9.83;74.13;97635.28;2082765;28;20199;-71
2022/02/19 03:04:19;;;;;;;15.13;14.18;;;;;;;9.80;73.88;97630.56;2082828;28;20199;-72
2022/02/19 03:05:22;;;;;;;14.90;14.00;;;;;;;9.82;74.15;97639.03;2074409;28;20242;-71
2022/02/19 03:06:23;;;;;;;15.60;14.60;;;;;;;9.87;71.52;97648.72;2082311;28;20227;-72
2022/02/19 03:07:26;;;;;;;15.88;14.77;;;;;;;9.94;67.13;97653.53;2082570;28;20658;-72
2022/02/19 03:08:34;;;;;;;16.05;14.88;;;;;;;9.95;67.54;97645.19;2082567;28;20195;-72
2022/02/19 03:09:41;;;;;;;15.60;14.50;;;;;;;9.93;67.73;97660.75;2082700;28;20661;-72
2022/02/19 03:10:49;;;;;;;15.68;14.50;;;;;;;9.97;64.51;97628.88;2082365;28;20203;-72
2022/02/19 03:11:53;;;;;;;16.33;14.30;;;;;;;9.99;62.47;97647.97;2082199;28;20199;-72
2022/02/19 03:12:54;;;;;;;15.77;14.55;;;;;;;10.03;61.45;97668.31;2082593;28;20654;-71
2022/02/19 03:13:59;;;;;;;15.35;14.30;;;;;;;10.09;60.25;97648.38;2082789;28;20208;-72
2022/02/19 03:15:03;;;;;;;15.40;14.43;;;;;;;10.06;60.38;97653.56;2074646;28;20207;-72
2022/02/19 03:16:06;;;;;;;15.65;14.65;;;;;;;10.04;60.20;97651.22;2082472;28;20585;-72
2022/02/19 03:17:12;;;;;;;16.30;14.93;;;;;;;10.01;59.65;97672.44;2074980;28;20211;-71
2022/02/19 03:18:18;;;;;;;15.82;14.77;;;;;;;10.02;59.42;97650.00;2083178;28;20215;-72
2022/02/19 03:19:19;;;;;;;15.85;14.77;;;;;;;10.03;59.08;97679.00;2082792;28;20627;-71
2022/02/19 03:20:24;;;;;;;16.30;15.10;;;;;;;9.99;58.59;97643.47;2082770;28;20234;-72
2022/02/19 03:21:25;;;;;;;16.00;14.90;;;;;;;9.96;58.23;97660.06;2082368;28;20705;-71
2022/02/19 03:22:29;;;;;;;16.05;14.95;;;;;;;9.97;57.70;97650.97;2082718;28;20199;-71
2022/02/19 03:23:37;;;;;;;16.13;14.98;;;;;;;9.93;57.57;97679.38;2082184;28;20274;-71
2022/02/19 03:24:46;;;;;;;17.00;15.80;;;;;;;9.95;57.81;97658.53;2082600;28;20187;-71
2022/02/19 03:25:50;;;;;;;16.70;15.60;;;;;;;9.91;57.34;97662.97;2082404;28;20298;-71
2022/02/19 03:26:51;;;;;;;16.23;15.13;;;;;;;9.93;56.89;97628.75;2074396;28;20200;-72
2022/02/19 03:27:56;;;;;;;16.15;15.05;;;;;;;9.92;56.80;97664.50;2074527;28;20283;-71
2022/02/19 03:29:04;;;;;;;15.30;14.40;;;;;;;9.86;56.67;97671.13;2075203;28;20208;-72
2022/02/19 03:30:16;;;;;;;15.60;14.60;;;;;;;9.84;57.21;97673.34;2075348;28;20388;-72
2022/02/19 03:31:22;;;;;;;15.85;14.68;;;;;;;9.80;57.50;97683.06;2074893;28;20219;-71
2022/02/19 03:32:30;;;;;;;16.02;14.93;;;;;;;9.77;57.65;97687.16;2082407;28;20191;-72
2022/02/19 03:33:34;;;;;;;15.80;14.80;;;;;;;9.77;57.46;97668.53;2075223;28;20261;-72
2022/02/19 03:34:37;;;;;;;15.80;14.65;;;;;;;9.73;57.78;97691.59;2074426;28;20218;-71
2022/02/19 03:35:38;;;;;;;15.40;14.40;;;;;;;9.71;57.61;97706.31;2074360;28;20247;-71
2022/02/19 03:36:46;;;;;;;16.05;14.68;;;;;;;9.71;57.37;97703.66;2074035;28;20224;-71
2022/02/19 03:37:54;;;;;;;16.42;15.13;;;;;;;9.73;56.83;97718.22;2074945;28;20239;-71
2022/02/19 03:39:20;;;;;;;15.63;14.52;;;;;;;9.67;57.36;97714.19;2077106;28;20184;-72
2022/02/19 03:40:21;;;;;;;15.73;14.73;;;;;;;9.69;56.73;97706.66;2082498;28;20622;-71
2022/02/19 03:41:24;;;;;;;15.90;14.82;;;;;;;9.63;57.45;97695.41;2082337;28;20278;-72
2022/02/19 03:42:30;;;;;;;16.35;15.07;;;;;;;9.58;57.04;97730.22;2082259;28;20199;-72
2022/02/19 03:43:32;;;;;;;15.43;14.43;;;;;;;9.54;56.72;97700.00;2074979;28;20204;-71
2022/02/19 03:44:40;;;;;;;15.38;14.38;;;;;;;9.53;55.63;97703.75;2074238;28;20283;-72
2022/02/19 03:45:54;;;;;;;16.17;14.93;;;;;;;9.60;55.60;97732.56;2075957;28;20599;-71
2022/02/19 03:47:18;;;;;;;16.13;15.02;;;;;;;9.56;54.73;97728.97;2077696;28;20195;-71
2022/02/19 03:48:26;;;;;;;15.35;14.32;;;;;;;9.57;54.92;97704.69;2083364;28;20196;-71
2022/02/19 03:49:28;;;;;;;15.20;14.30;;;;;;;9.59;55.19;97691.81;2082324;28;20206;-72
2022/02/19 03:50:30;;;;;;;14.93;13.93;;;;;;;9.55;54.64;97692.78;2082296;28;20457;-72
2022/02/19 03:51:39;;;;;;;14.90;13.90;;;;;;;9.50;54.78;97707.06;2082577;28;20302;-72
2022/02/19 03:52:46;;;;;;;15.57;14.50;;;;;;;9.48;54.16;97703.97;2082575;28;20294;-72
2022/02/19 03:54:11;;;;;;;15.52;14.43;;;;;;;9.44;54.72;97702.25;2077237;28;20184;-72
2022/02/19 03:55:18;;;;;;;16.02;14.93;;;;;;;9.38;54.02;97717.63;2074923;28;20727;-72
2022/02/19 03:56:21;;;;;;;15.93;14.93;;;;;;;9.33;53.17;97715.16;2074161;28;20286;-72
2022/02/19 03:57:30;;;;;;;16.00;14.90;;;;;;;9.34;52.23;97716.72;2075235;28;20663;-72
2022/02/19 03:58:36;;;;;;;15.50;14.50;;;;;;;9.35;51.55;97753.66;2074235;28;20714;-72
2022/02/19 03:59:41;;;;;;;15.90;14.80;;;;;;;9.36;52.18;97749.09;2074819;28;20290;-72
2022/02/19 04:00:50;;;;;;;15.02;14.10;;;;;;;9.29;52.47;97716.88;2083400;28;20230;-72
2022/02/19 04:01:56;;;;;;;15.63;14.27;;;;;;;9.31;51.83;97730.66;2082570;28;20231;-72
2022/02/19 04:03:00;;;;;;;15.45;14.30;;;;;;;9.32;51.82;97751.63;2074689;28;20619;-72
2022/02/19 04:04:05;;;;;;;15.27;14.18;;;;;;;9.33;51.36;97805.66;2082179;28;20200;-72
2022/02/19 04:05:11;;;;;;;15.50;14.40;;;;;;;9.28;51.42;97732.06;2082355;28;20200;-72
2022/02/19 04:06:17;;;;;;;15.40;14.40;;;;;;;9.30;51.30;97721.13;2073963;28;20267;-72
2022/02/19 04:07:25;;;;;;;15.57;14.55;;;;;;;9.27;51.54;97727.06;2074652;28;20192;-72
2022/02/19 04:08:38;;;;;;;15.10;14.20;;;;;;;9.23;51.73;97718.16;2083941;28;20196;-72
2022/02/19 04:09:39;;;;;;;15.68;14.68;;;;;;;9.22;51.54;97727.25;2081978;28;20206;-72
2022/02/19 04:10:46;;;;;;;15.67;14.67;;;;;;;9.18;51.67;97743.06;2073916;28;20226;-72
2022/02/19 04:11:48;;;;;;;15.40;14.30;;;;;;;9.16;51.50;97716.00;2074596;28;20470;-72
2022/02/19 04:12:58;;;;;;;16.00;14.90;;;;;;;9.12;51.96;97722.25;2074109;28;20251;-72
2022/02/19 04:14:18;;;;;;;15.85;14.55;;;;;;;9.05;52.17;97701.50;2076432;28;20204;-72
2022/02/19 04:15:28;;;;;;;14.95;13.85;;;;;;;9.06;52.22;97708.38;2075625;28;20547;-72
2022/02/19 04:16:32;;;;;;;14.90;14.00;;;;;;;9.03;52.07;97709.81;2074163;28;20551;-72
2022/02/19 04:17:34;;;;;;;15.18;14.10;;;;;;;9.00;51.73;97720.28;2074266;28;20666;-72
2022/02/19 04:18:36;;;;;;;15.17;14.20;;;;;;;8.98;51.68;97727.81;2074079;28;20665;-72
2022/02/19 04:19:39;;;;;;;15.52;14.45;;;;;;;9.01;51.35;97730.59;2073966;28;20295;-71
2022/02/19 04:20:45;;;;;;;15.55;14.55;;;;;;;9.04;51.51;97713.25;2074136;28;20552;-72
2022/02/19 04:21:48;;;;;;;15.50;14.40;;;;;;;9.00;51.61;97705.09;2074216;28;20243;-72
2022/02/19 04:23:01;;;;;;;15.50;14.52;;;;;;;8.96;52.01;97717.50;2074659;28;20307;-71
2022/02/19 04:24:04;;;;;;;15.98;14.60;;;;;;;8.94;51.69;97718.88;2081732;28;20617;-71
2022/02/19 04:25:10;;;;;;;15.30;14.20;;;;;;;8.90;52.04;97720.63;2082478;28;20222;-71
2022/02/19 04:26:12;;;;;;;14.95;13.95;;;;;;;8.89;52.13;97733.16;2081966;28;20256;-72
2022/02/19 04:27:25;;;;;;;15.15;14.20;;;;;;;8.89;52.13;97714.53;2081939;28;20187;-71
2022/02/19 04:28:28;;;;;;;15.50;14.45;;;;;;;8.87;52.13;97740.66;2081952;28;20598;-72
2022/02/19 04:29:34;;;;;;;15.27;14.23;;;;;;;8.83;52.07;97728.31;2081903;28;20282;-71
2022/02/19 04:30:38;;;;;;;15.52;14.52;;;;;;;8.85;52.31;97723.44;2074544;28;20203;-73
2022/02/19 04:31:46;;;;;;;15.52;14.52;;;;;;;8.84;51.72;97738.63;2082206;28;20662;-72
2022/02/19 04:32:59;;;;;;;15.07;14.07;;;;;;;8.88;52.17;97742.22;2082075;28;20199;-73
2022/02/19 04:34:02;;;;;;;15.27;14.20;;;;;;;8.85;52.27;97750.81;2081984;28;20281;-72
2022/02/19 04:35:12;;;;;;;15.52;14.45;;;;;;;8.85;51.87;97750.81;2074186;28;20738;-73
2022/02/19 04:36:18;;;;;;;15.88;14.70;;;;;;;8.85;51.57;97761.47;2081381;28;20701;-73
2022/02/19 04:37:23;;;;;;;15.52;14.52;;;;;;;8.96;51.20;97746.75;2074425;28;20200;-72
2022/02/19 04:38:30;;;;;;;16.27;15.02;;;;;;;8.93;51.51;97763.31;2074659;28;20216;-72
2022/02/19 04:39:34;;;;;;;15.52;14.48;;;;;;;8.89;51.70;97746.44;2074523;28;20677;-73
2022/02/19 04:40:46;;;;;;;15.85;14.65;;;;;;;8.85;51.78;97734.09;2081855;28;20196;-73
2022/02/19 04:41:54;;;;;;;15.60;14.50;;;;;;;8.79;51.95;97736.16;2074462;28;20203;-73
2022/02/19 04:43:01;;;;;;;15.80;14.68;;;;;;;8.80;51.30;97748.34;2074977;28;20199;-72
2022/02/19 04:44:12;;;;;;;16.70;15.43;;;;;;;8.80;51.53;97743.03;2074885;28;20189;-73
2022/02/19 04:45:18;;;;;;;15.45;14.45;;;;;;;8.79;51.96;97768.06;2074606;28;20699;-73
2022/02/19 04:46:28;;;;;;;15.95;14.90;;;;;;;8.80;51.62;97743.03;2075082;28;20220;-73
2022/02/19 04:47:34;;;;;;;15.30;14.20;;;;;;;8.78;51.98;97750.56;2081766;28;20773;-73
2022/02/19 04:48:38;;;;;;;15.70;14.65;;;;;;;8.76;51.67;97747.41;2074018;28;20654;-73
2022/02/19 04:49:46;;;;;;;16.50;15.10;;;;;;;8.71;52.18;97747.59;2073804;28;20320;-72
2022/02/19 04:50:53;;;;;;;16.30;15.13;;;;;;;8.70;52.41;97744.16;2081753;28;20212;-72
2022/02/19 04:51:59;;;;;;;16.48;15.27;;;;;;;8.69;52.27;97749.78;2073981;28;20235;-73
2022/02/19 04:53:04;;;;;;;16.30;15.20;;;;;;;8.65;52.32;97780.75;2074110;28;20287;-73
2022/02/19 04:54:12;;;;;;;15.90;14.90;;;;;;;8.64;52.43;97750.72;2074584;28;20292;-73
2022/02/19 04:55:21;;;;;;;16.10;14.90;;;;;;;8.62;52.26;97757.44;2074767;28;20203;-73
2022/02/19 04:56:28;;;;;;;16.30;15.20;;;;;;;8.63;52.00;97767.00;2081662;28;20210;-73
2022/02/19 04:57:37;;;;;;;16.42;15.23;;;;;;;8.64;52.08;97761.34;2081926;28;20262;-72
2022/02/19 04:58:41;;;;;;;15.68;14.63;;;;;;;8.64;52.35;97756.03;2081509;28;20310;-72
2022/02/19 04:59:47;;;;;;;16.08;15.02;;;;;;;8.57;52.75;97761.03;2073763;28;20580;-72
2022/02/19 05:00:53;;;;;;;16.17;15.02;;;;;;;8.53;52.66;97786.69;2081550;28;20192;-72
2022/02/19 05:01:59;;;;;;;16.40;15.30;;;;;;;8.53;53.08;97752.16;2081789;28;20618;-72
2022/02/19 05:03:13;;;;;;;16.23;15.02;;;;;;;8.52;52.90;97789.69;2081609;28;20196;-72
2022/02/19 05:04:29;;;;;;;16.30;15.20;;;;;;;8.56;52.59;97770.13;2075329;28;20204;-73
2022/02/19 05:05:40;;;;;;;15.70;14.70;;;;;;;8.53;52.59;97768.09;2074918;28;20207;-72
2022/02/19 05:06:42;;;;;;;15.65;14.55;;;;;;;8.53;52.93;97770.75;2072998;28;20697;-72
2022/02/19 05:07:47;;;;;;;16.00;14.82;;;;;;;8.48;52.96;97763.69;2072865;28;20192;-72